Home > Products > Valid Products > MTR

000
SAUS42 KCHS 050758
MTRNBC
METAR KNBC 050756Z AUTO 25005KT 10SM CLR 25/23 A3002 RMK AO2 SLP165
T02500228





000
SAUS42 KCHS 050755
MTRSAV
METAR KSAV 050753Z AUTO 26003KT 10SM CLR 24/22 A3003 RMK AO2 SLP167
T02390217 TSNO





000
SAUS42 KCHS 050657
MTRNBC
METAR KNBC 050656Z AUTO 25007KT 10SM CLR 26/22 A3002 RMK AO2 SLP165
T02610222





000
SAUS42 KCHS 050657
MTRNBC
METAR KNBC 050656Z AUTO 25007KT 10SM CLR 26/22 A3002 RMK AO2 SLP165
T02610222





000
SAUS42 KCHS 050654
MTRSAV
METAR KSAV 050653Z AUTO 24004KT 10SM CLR 25/22 A3002 RMK AO2 SLP166
T02500217 TSNO





000
SAUS42 KCHS 050557
MTRNBC
METAR KNBC 050556Z AUTO 25007KT 10SM CLR 26/22 A3002 RMK AO2 SLP166
T02610222 10300 20261 50005





000
SAUS42 KCHS 050557
MTRNBC
METAR KNBC 050556Z AUTO 25007KT 10SM CLR 26/22 A3002 RMK AO2 SLP166
T02610222 10300 20261 50005





000
SAUS42 KCHS 050554
MTRSAV
METAR KSAV 050553Z AUTO 24005KT 10SM CLR 26/22 A3004 RMK AO2 SLP170
T02560217 10306 20250 50006 TSNO





000
SAUS42 KCHS 050554
MTRSAV
METAR KSAV 050553Z AUTO 24005KT 10SM CLR 26/22 A3004 RMK AO2 SLP170
T02560217 10306 20250 50006 TSNO





000
SAUS42 KCHS 050457
MTRNBC
METAR KNBC 050456Z AUTO 24009KT 10SM CLR 27/22 A3003 RMK AO2 SLP168
T02670217 403390244





000
SAUS42 KCHS 050457
MTRNBC
METAR KNBC 050456Z AUTO 24009KT 10SM CLR 27/22 A3003 RMK AO2 SLP168
T02670217 403390244





000
SAUS42 KCHS 050454
MTRSAV
METAR KSAV 050453Z AUTO 27005KT 10SM CLR 26/22 A3004 RMK AO2 SLP172
T02560217 403440239 TSNO





000
SAUS42 KCHS 050358
MTRNBC
METAR KNBC 050356Z AUTO 24010KT 10SM SCT150 27/23 A3002 RMK AO2
SLP166 LAST T02720228





000
SAUS42 KCHS 050358
MTRNBC
METAR KNBC 050356Z AUTO 24010KT 10SM SCT150 27/23 A3002 RMK AO2
SLP166 LAST T02720228





000
SAUS42 KCHS 050355
MTRSAV
METAR KSAV 050353Z COR 23006KT 10SM SCT200 27/21 A3004 RMK AO2
SLP170 LAST AUGMENTED OBSERVATION UNTIL 1000Z T02670211





000
SAUS42 KCHS 050355
MTRSAV
METAR KSAV 050353Z COR 23006KT 10SM SCT200 27/21 A3004 RMK AO2
SLP170 LAST AUGMENTED OBSERVATION UNTIL 1000Z T02670211





000
SAUS42 KCHS 050355
MTRSAV
METAR KSAV 050353Z 23006KT 10SM SCT200 27/21 A3004 RMK AO2 SLP170
FIRST AUGMENTED OBSERVATION UNTIL 1000Z T02670211





000
SAUS42 KCHS 050332
MTRNBC
SPECI KNBC 050331Z 24010KT 10SM SCT150 28/23 A3001 RMK AO2 LAST
T02780233





000
SAUS42 KCHS 050258
MTRNBC
METAR KNBC 050256Z 22008KT 10SM SCT150 28/25 A3000 RMK AO2 SLP160
T02780250 53013





000
SAUS42 KCHS 050255
MTRSAV
METAR KSAV 050253Z 24008KT 10SM FEW200 27/22 A3002 RMK AO2 SLP164
T02670217 53017





000
SAUS42 KCHS 050157
MTRNBC
METAR KNBC 050156Z 18005KT 10SM SCT150 28/26 A2998 RMK AO2 SLP154
T02830256





000
SAUS42 KCHS 050155
MTRSAV
METAR KSAV 050153Z 22004KT 10SM SCT200 28/23 A3000 RMK AO2 SLP158
T02780233





000
SAUS42 KCHS 050058
MTRNBC
METAR KNBC 050056Z 18004KT 10SM SCT150 29/25 A2997 RMK AO2 SLP149
T02890250





000
SAUS42 KCHS 050055
MTRSAV
METAR KSAV 050053Z 22006KT 10SM FEW085 SCT200 29/24 A2998 RMK AO2
SLP151 T02940239





000
SAUS42 KCHS 042357
MTRNBC
METAR KNBC 042356Z 17005KT 10SM SCT150 30/25 A2996 RMK AO2 SLP147
T03000250 10339 20300 53004





000
SAUS42 KCHS 042357
MTRNBC
METAR KNBC 042356Z 17005KT 10SM SCT150 30/25 A2996 RMK AO2 SLP147
T03000250 10339 20300 53004





000
SAUS42 KCHS 042354
MTRSAV
METAR KSAV 042353Z 19009KT 10SM FEW050 SCT085 SCT200 30/25 A2997 RMK
AO2 SLP147 T03000250 10344 20300 53002





000
SAUS42 KCHS 042354
MTRSAV
METAR KSAV 042353Z 19009KT 10SM FEW050 SCT085 SCT200 30/25 A2997 RMK
AO2 SLP147 T03000250 10344 20300 53002





000
SAUS42 KCHS 042257
MTRNBC
METAR KNBC 042256Z 20006KT 10SM FEW040 BKN150 32/26 A2995 RMK AO2
SLP142 T03170256





000
SAUS42 KCHS 042257
MTRNBC
METAR KNBC 042256Z 20006KT 10SM FEW040 BKN150 32/26 A2995 RMK AO2
SLP142 T03170256





000
SAUS42 KCHS 042254
MTRSAV
METAR KSAV 042253Z 19006KT 10SM FEW085 SCT200 33/21 A2995 RMK AO2
SLP142 T03330211





000
SAUS42 KCHS 042254
MTRSAV
METAR KSAV 042253Z 19006KT 10SM FEW085 SCT200 33/21 A2995 RMK AO2
SLP142 T03330211





000
SAUS42 KCHS 042157
MTRNBC
METAR KNBC 042156Z VRB05KT 10SM SCT150 33/26 A2996 RMK AO2 SLP144
T03280261





000
SAUS42 KCHS 042157
MTRNBC
METAR KNBC 042156Z VRB05KT 10SM SCT150 33/26 A2996 RMK AO2 SLP144
T03280261





000
SAUS42 KCHS 042154
MTRSAV
METAR KSAV 042153Z 28005KT 10SM SCT049 SCT200 34/21 A2996 RMK AO2
SLP144 T03440211





000
SAUS42 KCHS 042057
MTRNBC
METAR KNBC 042056Z VRB06KT 10SM SCT036 SCT150 34/23 A2995 RMK AO2
SLP142 T03390228 56011





000
SAUS42 KCHS 042057
MTRNBC
METAR KNBC 042056Z VRB06KT 10SM SCT036 SCT150 34/23 A2995 RMK AO2
SLP142 T03390228 56011





000
SAUS42 KCHS 042054
MTRSAV
METAR KSAV 042053Z 00000KT 10SM SCT046 SCT200 33/21 A2996 RMK AO2
SLP145 T03330211 55010





000
SAUS42 KCHS 042054
MTRSAV
METAR KSAV 042053Z 00000KT 10SM SCT046 SCT200 33/21 A2996 RMK AO2
SLP145 T03330211 55010





000
SAUS42 KCHS 041958
MTRNBC
METAR KNBC 041956Z 29004KT 10SM SCT038 33/23 A2996 RMK AO2 SLP144
T03330233





000
SAUS42 KCHS 041958
MTRNBC
METAR KNBC 041956Z 29004KT 10SM SCT038 33/23 A2996 RMK AO2 SLP144
T03330233





000
SAUS42 KCHS 041955
MTRSAV
METAR KSAV 041953Z VRB05KT 10SM SCT049 SCT055 SCT200 34/22 A2996 RMK
AO2 SLP144 T03390217





000
SAUS42 KCHS 041955
MTRSAV
METAR KSAV 041953Z VRB05KT 10SM SCT049 SCT055 SCT200 34/22 A2996 RMK
AO2 SLP144 T03390217





000
SAUS42 KCHS 041857
MTRNBC
METAR KNBC 041856Z 00000KT 10SM SCT034 SCT120 32/23 A2997 RMK AO2
SLP150 T03220233





000
SAUS42 KCHS 041855
MTRSAV
METAR KSAV 041853Z VRB05KT 10SM SCT039 SCT050 SCT200 33/23 A2998 RMK
AO2 SLP150 T03330228





000
SAUS42 KCHS 041757
MTRNBC
METAR KNBC 041756Z 00000KT 10SM SCT035 SCT250 31/23 A2998 RMK AO2
SLP153 T03060233 10322 20250 58004





000
SAUS42 KCHS 041754
MTRSAV
METAR KSAV 041753Z 28005KT 10SM SCT036 SCT200 33/23 A2999 RMK AO2
SLP155 T03280233 10328 20239 58002





000
SAUS42 KCHS 041657
MTRNBC
METAR KNBC 041656Z 31008KT 10SM SCT022 SCT250 31/23 A2999 RMK AO2
SLP157 T03110233





000
SAUS42 KCHS 041654
MTRSAV
METAR KSAV 041653Z 01005KT 10SM FEW029 SCT200 32/23 A3000 RMK AO2
SLP159 T03170228





000
SAUS42 KCHS 041557
MTRNBC
METAR KNBC 041556Z 32009KT 10SM BKN022 30/24 A3000 RMK AO2 SLP157
T03000239





000
SAUS42 KCHS 041555
MTRSAV
METAR KSAV 041553Z 36005KT 10SM SCT024 BKN200 31/23 A3001 RMK AO2
SLP160 T03060228





000
SAUS42 KCHS 041554
MTRNBC
SPECI KNBC 041553Z 31009KT 10SM BKN022 30/24 A3000 RMK AO2





000
SAUS42 KCHS 041536
MTRSAV
SPECI KSAV 041535Z VRB05KT 10SM SCT023 BKN200 30/23 A3000 RMK AO2





000
SAUS42 KCHS 041520
MTRNBC
SPECI KNBC 041518Z 33010KT 10SM SCT017 29/24 A2999 RMK AO2 T02940239





000
SAUS42 KCHS 041504
MTRNBC
METAR KNBC 041456Z COR 32007KT 290V350 10SM BKN015 BKN020 28/24
A2999 RMK AO2 SLP155 T02830239 51005





000
SAUS42 KCHS 041504
MTRNBC
METAR KNBC 041456Z COR 32007KT 290V350 10SM BKN015 BKN020 28/24
A2999 RMK AO2 SLP155 T02830239 51005





000
SAUS42 KCHS 041458
MTRNBC
METAR KNBC 041456Z 32007KT 290V350 10SM BKN015 OVC020 28/24 A2999
RMK AO2 SLP155 T02830239 51005





000
SAUS42 KCHS 041455
MTRSAV
METAR KSAV 041453Z 35006KT 10SM BKN016 29/23 A3000 RMK AO2 SLP157
T02890233 53004





000
SAUS42 KCHS 041455
MTRSAV
METAR KSAV 041453Z 35006KT 10SM BKN016 29/23 A3000 RMK AO2 SLP157
T02890233 53004





000
SAUS42 KCHS 041438
MTRSAV
SPECI KSAV 041437Z 32007KT 10SM BKN016 28/23 A3000 RMK AO2





000
SAUS42 KCHS 041438
MTRNBC
SPECI KNBC 041437Z 33006KT 10SM BKN012 27/23 A2998 RMK AO2 T02720233
$





000
SAUS42 KCHS 041431
MTRNBC
SPECI KNBC 041430Z 29008KT 10SM SCT009 BKN015 28/24 A2998 RMK AO2
T02830244 $





000
SAUS42 KCHS 041357
MTRNBC
METAR KNBC 041356Z 32008KT 10SM OVC007 26/24 A2998 RMK AO2 CIG
005V012 SLP153 T02610239 $





000
SAUS42 KCHS 041357
MTRNBC
METAR KNBC 041356Z 32008KT 10SM OVC007 26/24 A2998 RMK AO2 CIG
005V012 SLP153 T02610239 $





000
SAUS42 KCHS 041355
MTRSAV
METAR KSAV 041353Z 31006KT 10SM BKN010 BKN170 27/23 A2998 RMK AO2
SLP153 T02670233





000
SAUS42 KCHS 041354
MTRNBC
SPECI KNBC 041353Z 32008KT 10SM OVC007 26/24 A2998 RMK AO2 CIG
005V012





000
SAUS42 KCHS 041345
MTRSAV
SPECI KSAV 041344Z 33008KT 10SM BKN010 BKN170 27/23 A2998 RMK AO2





000
SAUS42 KCHS 041345
MTRSAV
SPECI KSAV 041344Z 33008KT 10SM BKN010 BKN170 27/23 A2998 RMK AO2





000
SAUS42 KCHS 041339
MTRNBC
SPECI KNBC 041338Z 31005KT 10SM OVC005 26/24 A2998 RMK AO2 T02560239





000
SAUS42 KCHS 041339
MTRNBC
SPECI KNBC 041338Z 31005KT 10SM OVC005 26/24 A2998 RMK AO2 T02560239





000
SAUS42 KCHS 041324
MTRNBC
SPECI KNBC 041322Z 32006KT 10SM OVC004 26/24 A2998 RMK AO2 CIG
003V008 T02560239





000
SAUS42 KCHS 041324
MTRNBC
SPECI KNBC 041322Z 32006KT 10SM OVC004 26/24 A2998 RMK AO2 CIG
003V008 T02560239





000
SAUS42 KCHS 041258
MTRNBC
METAR KNBC 041256Z 28004KT 10SM OVC003 25/24 A2997 RMK AO2 SLP150
T02500239





000
SAUS42 KCHS 041258
MTRNBC
METAR KNBC 041256Z 28004KT 10SM OVC003 25/24 A2997 RMK AO2 SLP150
T02500239





000
SAUS42 KCHS 041254
MTRSAV
METAR KSAV 041253Z 29007KT 10SM OVC005 24/23 A2999 RMK AO2 SLP154
T02440233





000
SAUS42 KCHS 041251
MTRSAV
SPECI KSAV 041250Z 30006KT 10SM OVC005 24/23 A2999 RMK AO2





000
SAUS42 KCHS 041240
MTRNBC
SPECI KNBC 041238Z 29005KT 5SM BR OVC002 24/24 A2997 RMK AO2
T02440239





000
SAUS42 KCHS 041221
MTRSAV
SPECI KSAV 041220Z 28004KT 3SM BR BKN003 OVC150 24/23 A2998 RMK AO2
SFC VIS 4





000
SAUS42 KCHS 041221
MTRSAV
SPECI KSAV 041220Z 28004KT 3SM BR BKN003 OVC150 24/23 A2998 RMK AO2
SFC VIS 4





000
SAUS42 KCHS 041209
MTRNBC
SPECI KNBC 041208Z 29004KT 2SM BR OVC002 24/24 A2996 RMK AO2
T02440239





000
SAUS42 KCHS 041209
MTRNBC
SPECI KNBC 041208Z 29004KT 2SM BR OVC002 24/24 A2996 RMK AO2
T02440239





000
SAUS42 KCHS 041155
MTRNBC
METAR KNBC 041154Z 29004KT 3SM BR OVC003 24/24 A2995 RMK AO2 SLP142
70002 T02440239 10256 20244 51021





000
SAUS42 KCHS 041155
MTRSAV
METAR KSAV 041153Z 28004KT 1/2SM R10/3500V4500FT FG VV002 24/23
A2997 RMK AO2 SLP147 T02390233 10244 20239 53021





000
SAUS42 KCHS 041155
MTRNBC
METAR KNBC 041154Z 29004KT 3SM BR OVC003 24/24 A2995 RMK AO2 SLP142
70002 T02440239 10256 20244 51021





000
SAUS42 KCHS 041155
MTRSAV
METAR KSAV 041153Z 28004KT 1/2SM R10/3500V4500FT FG VV002 24/23
A2997 RMK AO2 SLP147 T02390233 10244 20239 53021





000
SAUS42 KCHS 041116
MTRNBC
SPECI KNBC 041115Z 27006KT 2SM BR OVC002 24/24 A2994 RMK AO2
T02440239





000
SAUS42 KCHS 041058
MTRNBC
METAR KNBC 041056Z 28006KT 2SM BR OVC003 24/24 A2993 RMK AO2 SLP136
T02440239





000
SAUS42 KCHS 041058
MTRNBC
METAR KNBC 041056Z 28006KT 2SM BR OVC003 24/24 A2993 RMK AO2 SLP136
T02440239





000
SAUS42 KCHS 041054
MTRSAV
METAR KSAV 041053Z 26004KT 1/2SM BR OVC002 24/23 A2995 RMK AO2 SFC
VIS 1 1/2 SLP141 T02390233





000
SAUS42 KCHS 041054
MTRSAV
METAR KSAV 041053Z 26004KT 1/2SM BR OVC002 24/23 A2995 RMK AO2 SFC
VIS 1 1/2 SLP141 T02390233





000
SAUS42 KCHS 041039
MTRNBC
SPECI KNBC 041038Z 26005KT 9SM OVC003 24/24 A2993 RMK AO2 FIRST
T02440239





000
SAUS42 KCHS 041036
MTRSAV
SPECI KSAV 041035Z 28004KT 1/2SM BR OVC002 24/23 A2994 RMK AO2 SFC
VIS 1 1/2





000
SAUS42 KCHS 041036
MTRSAV
SPECI KSAV 041035Z 28004KT 1/2SM BR OVC002 24/23 A2994 RMK AO2 SFC
VIS 1 1/2





000
SAUS42 KCHS 040957
MTRNBC
METAR KNBC 040956Z AUTO 28005KT 9SM OVC003 24/24 A2991 RMK AO2
PRESRR SLP130 T02440239





000
SAUS42 KCHS 040954
MTRSAV
METAR KSAV 040953Z 27004KT 1/4SM R10/3000V4500FT FG VV002 24/23
A2992 RMK AO2 SFC VIS 1/2 SLP131 FIRST AUGMENTED OBSERVATION
T02390233





000
SAUS42 KCHS 040946
MTRSAV
SPECI KSAV 040944Z AUTO 27005KT 1 3/4SM R10/3500VP6000FT BR OVC002
24/23 A2992 RMK AO2 TSNO





000
SAUS42 KCHS 040946
MTRSAV
SPECI KSAV 040944Z AUTO 27005KT 1 3/4SM R10/3500VP6000FT BR OVC002
24/23 A2992 RMK AO2 TSNO





000
SAUS42 KCHS 040916
MTRSAV
SPECI KSAV 040915Z AUTO 26005KT 1SM R10/3500V4500FT BR VV002 24/23
A2991 RMK AO2 TSNO





000
SAUS42 KCHS 040905
MTRSAV
SPECI KSAV 040904Z AUTO 26004KT 1 3/4SM R10/3500VP6000FT BR OVC002
24/23 A2991 RMK AO2 TSNO





000
SAUS42 KCHS 040857
MTRNBC
METAR KNBC 040856Z AUTO 31005KT 7SM OVC003 24/24 A2989 RMK AO2
SLP122 T02440239 53001





000
SAUS42 KCHS 040855
MTRSAV
METAR KSAV 040853Z AUTO 25006KT 1SM R10/4500VP6000FT BR VV002 24/23
A2991 RMK AO2 SLP126 T02390233 52003 TSNO





000
SAUS42 KCHS 040855
MTRSAV
METAR KSAV 040853Z AUTO 25006KT 1SM R10/4500VP6000FT BR VV002 24/23
A2991 RMK AO2 SLP126 T02390233 52003 TSNO





000
SAUS42 KCHS 040845
MTRSAV
SPECI KSAV 040844Z AUTO 25005KT 1 3/4SM R10/3500V5500FT BR OVC003
24/23 A2990 RMK AO2 TSNO





000
SAUS42 KCHS 040821
MTRNBC
SPECI KNBC 040819Z AUTO 30004KT 10SM OVC003 25/24 A2988 RMK AO2
T02500239





000
SAUS42 KCHS 040821
MTRNBC
SPECI KNBC 040819Z AUTO 30004KT 10SM OVC003 25/24 A2988 RMK AO2
T02500239





000
SAUS42 KCHS 040815
MTRSAV
SPECI KSAV 040814Z AUTO 28003KT 3SM BR OVC003 24/23 A2991 RMK AO2
TSNO





000
SAUS42 KCHS 040810
MTRSAV
SPECI KSAV 040809Z AUTO 28004KT 1 3/4SM BR OVC003 24/23 A2991 RMK
AO2 TSNO





000
SAUS42 KCHS 040803
MTRSAV
SPECI KSAV 040802Z AUTO 26004KT 3SM BR OVC003 24/23 A2990 RMK AO2
TSNO





000
SAUS42 KCHS 040803
MTRSAV
SPECI KSAV 040802Z AUTO 26004KT 3SM BR OVC003 24/23 A2990 RMK AO2
TSNO





000
SAUS42 KCHS 040757
MTRNBC
METAR KNBC 040756Z AUTO 28003KT 9SM OVC004 25/24 A2988 RMK AO2
SLP117 T02500239





000
SAUS42 KCHS 040754
MTRSAV
METAR KSAV 040753Z AUTO 28003KT 2 1/2SM R10/5000VP6000FT BR OVC003
24/23 A2990 RMK AO2 VIS 1 3/4V4 SLP126 T02440233 TSNO





000
SAUS42 KCHS 040754
MTRSAV
METAR KSAV 040753Z AUTO 28003KT 2 1/2SM R10/5000VP6000FT BR OVC003
24/23 A2990 RMK AO2 VIS 1 3/4V4 SLP126 T02440233 TSNO





000
SAUS42 KCHS 040746
MTRSAV
SPECI KSAV 040745Z AUTO 00000KT 2SM R10/5000VP6000FT BR OVC003 24/23
A2990 RMK AO2 TSNO





000
SAUS42 KCHS 040746
MTRSAV
SPECI KSAV 040745Z AUTO 00000KT 2SM R10/5000VP6000FT BR OVC003 24/23
A2990 RMK AO2 TSNO





000
SAUS42 KCHS 040733
MTRSAV
SPECI KSAV 040732Z AUTO 00000KT 3SM BR OVC003 24/23 A2990 RMK AO2
TSNO





000
SAUS42 KCHS 040726
MTRSAV
SPECI KSAV 040725Z AUTO 32003KT 1 1/2SM R10/4500VP6000FT BR OVC003
24/23 A2990 RMK AO2 TSNO





000
SAUS42 KCHS 040718
MTRSAV
SPECI KSAV 040717Z AUTO 00000KT 2SM R10/4000VP6000FT BR OVC003 24/24
A2990 RMK AO2 TSNO





000
SAUS42 KCHS 040718
MTRSAV
SPECI KSAV 040717Z AUTO 00000KT 2SM R10/4000VP6000FT BR OVC003 24/24
A2990 RMK AO2 TSNO





000
SAUS42 KCHS 040657
MTRNBC
METAR KNBC 040656Z AUTO 36006KT 10SM OVC004 26/24 A2989 RMK AO2
SLP121 T02560244





000
SAUS42 KCHS 040654
MTRSAV
METAR KSAV 040653Z AUTO 34005KT 3SM R10/6000VP6000FT BR OVC003 24/23
A2990 RMK AO2 SLP123 T02440233 TSNO





000
SAUS42 KCHS 040614
MTRSAV
SPECI KSAV 040612Z AUTO 01003KT 7SM BKN003 24/23 A2989 RMK AO2 TSNO





000
SAUS42 KCHS 040605
MTRNBC
SPECI KNBC 040603Z AUTO 02004KT 10SM BKN004 BKN010 OVC050 26/24
A2988 RMK AO2 T02560244





000
SAUS42 KCHS 040603
MTRSAV
SPECI KSAV 040602Z AUTO 36004KT 8SM SCT003 24/23 A2990 RMK AO2 TSNO





000
SAUS42 KCHS 040603
MTRSAV
SPECI KSAV 040602Z AUTO 36004KT 8SM SCT003 24/23 A2990 RMK AO2 TSNO





000
SAUS42 KCHS 040558
MTRNBC
METAR KNBC 040556Z AUTO 36004KT 10SM SCT004 BKN010 OVC050 26/24
A2989 RMK AO2 SLP120 T02560244 10278 20256 58010





000
SAUS42 KCHS 040558
MTRNBC
METAR KNBC 040556Z AUTO 36004KT 10SM SCT004 BKN010 OVC050 26/24
A2989 RMK AO2 SLP120 T02560244 10278 20256 58010





000
SAUS42 KCHS 040554
MTRSAV
METAR KSAV 040553Z AUTO 36004KT 9SM CLR 24/23 A2990 RMK AO2 SLP122
60000 T02440233 10261 20244 57005 TSNO





000
SAUS42 KCHS 040545
MTRNBC
SPECI KNBC 040544Z AUTO 36005KT 10SM FEW003 BKN010 OVC034 26/24
A2989 RMK AO2 T02560244





000
SAUS42 KCHS 040536
MTRNBC
SPECI KNBC 040535Z AUTO 35007KT 10SM FEW003 SCT012 OVC029 26/24
A2989 RMK AO2 T02560244





000
SAUS42 KCHS 040510
MTRSAV
SPECI KSAV 040508Z AUTO 34005KT 10SM SCT008 25/23 A2990 RMK AO2 TSNO





000
SAUS42 KCHS 040510
MTRSAV
SPECI KSAV 040508Z AUTO 34005KT 10SM SCT008 25/23 A2990 RMK AO2 TSNO





000
SAUS42 KCHS 040458
MTRNBC
METAR KNBC 040456Z AUTO 35004KT 10SM BKN015 OVC021 26/24 A2990 RMK
AO2 SLP125 T02610244 403060244





000
SAUS42 KCHS 040458
MTRNBC
METAR KNBC 040456Z AUTO 35004KT 10SM BKN015 OVC021 26/24 A2990 RMK
AO2 SLP125 T02610244 403060244





000
SAUS42 KCHS 040454
MTRSAV
METAR KSAV 040453Z AUTO 34005KT 10SM BKN008 25/23 A2990 RMK AO2
SLP124 T02500233 402940250 TSNO





000
SAUS42 KCHS 040454
MTRSAV
METAR KSAV 040453Z AUTO 34005KT 10SM BKN008 25/23 A2990 RMK AO2
SLP124 T02500233 402940250 TSNO





000
SAUS42 KCHS 040449
MTRNBC
SPECI KNBC 040448Z AUTO 02003KT 10SM BKN013 OVC033 26/24 A2990 RMK
AO2 T02560244





000
SAUS42 KCHS 040449
MTRNBC
SPECI KNBC 040448Z AUTO 02003KT 10SM BKN013 OVC033 26/24 A2990 RMK
AO2 T02560244





000
SAUS42 KCHS 040442
MTRSAV
SPECI KSAV 040440Z AUTO 35005KT 10SM BKN008 25/24 A2990 RMK AO2 TSNO





000
SAUS42 KCHS 040442
MTRSAV
SPECI KSAV 040440Z AUTO 35005KT 10SM BKN008 25/24 A2990 RMK AO2 TSNO





000
SAUS42 KCHS 040431
MTRSAV
SPECI KSAV 040429Z AUTO 35006KT 10SM SCT008 25/24 A2991 RMK AO2 TSNO





000
SAUS42 KCHS 040431
MTRSAV
SPECI KSAV 040429Z AUTO 35006KT 10SM SCT008 25/24 A2991 RMK AO2 TSNO





000
SAUS42 KCHS 040412
MTRNBC
SPECI KNBC 040410Z AUTO 04004KT 10SM SCT018 26/24 A2990 RMK AO2
T02560244





000
SAUS42 KCHS 040404
MTRNBC
SPECI KNBC 040403Z AUTO VRB03KT 10SM BKN018 BKN028 26/24 A2990 RMK
AO2 T02610244





000
SAUS42 KCHS 040357
MTRNBC
METAR KNBC 040356Z AUTO 10005KT 10SM FEW013 SCT023 26/24 A2991 RMK
AO2 SLP128 LAST T02610244





000
SAUS42 KCHS 040355
MTRSAV
METAR KSAV 040353Z 01003KT 10SM FEW013 SCT022 25/23 A2991 RMK AO2
RAE0257 SLP126 LAST AUGMENTED OBSERVATION UNTIL 1000Z P0000
T02500233





000
SAUS42 KCHS 040355
MTRSAV
METAR KSAV 040353Z 01003KT 10SM FEW013 SCT022 25/23 A2991 RMK AO2
RAE0257 SLP126 LAST AUGMENTED OBSERVATION UNTIL 1000Z P0000
T02500233





000
SAUS42 KCHS 040338
MTRSAV
SPECI KSAV 040337Z 00000KT 10SM FEW013 SCT021 SCT048 25/24 A2991 RMK
AO2 RAE0257 CB DSPT P0000





000
SAUS42 KCHS 040331
MTRNBC
SPECI KNBC 040330Z 09003KT 10SM FEW013 SCT023 26/24 A2991 RMK AO2
LAST T02610239





000
SAUS42 KCHS 040258
MTRNBC
METAR KNBC 040256Z VRB03KT 10SM FEW013 SCT030 27/24 A2992 RMK AO2
SLP131 T02670244 53014





000
SAUS42 KCHS 040258
MTRNBC
METAR KNBC 040256Z VRB03KT 10SM FEW013 SCT030 27/24 A2992 RMK AO2
SLP131 T02670244 53014





000
SAUS42 KCHS 040254
MTRSAV
METAR KSAV 040253Z 02003KT 10SM -RA BKN015 BKN021CB OVC048 26/24
A2991 RMK AO2 RAB48 SLP127 OCNL LTGICCACG S CB S P0000 60000
T02560239 53014





000
SAUS42 KCHS 040254
MTRSAV
METAR KSAV 040253Z 02003KT 10SM -RA BKN015 BKN021CB OVC048 26/24
A2991 RMK AO2 RAB48 SLP127 OCNL LTGICCACG S CB S P0000 60000
T02560239 53014





000
SAUS42 KCHS 040213
MTRSAV
SPECI KSAV 040212Z 03003KT 10SM SCT009 BKN017 OVC044 26/24 A2990 RMK
AO2





000
SAUS42 KCHS 040157
MTRNBC
METAR KNBC 040156Z 14004KT 10SM FEW017 SCT027 27/24 A2989 RMK AO2
SLP123 T02670244





000
SAUS42 KCHS 040154
MTRSAV
METAR KSAV 040153Z 04005KT 10SM BKN017 OVC044 26/24 A2989 RMK AO2
SLP122 T02560239





000
SAUS42 KCHS 040134
MTRSAV
SPECI KSAV 040133Z 04005KT 10SM BKN017 OVC044 26/24 A2989 RMK AO2





000
SAUS42 KCHS 040057
MTRNBC
METAR KNBC 040056Z 10003KT 10SM CLR 27/24 A2988 RMK AO2 SLP118
T02670239





000
SAUS42 KCHS 040057
MTRNBC
METAR KNBC 040056Z 10003KT 10SM CLR 27/24 A2988 RMK AO2 SLP118
T02670239





000
SAUS42 KCHS 040054
MTRSAV
METAR KSAV 040053Z 08005KT 10SM FEW017 SCT044TCU SCT140 26/24 A2987
RMK AO2 SLP114 TCU SE AND SW T02610239





000
SAUS42 KCHS 032357
MTRNBC
METAR KNBC 032356Z 12005KT 10SM SCT060 28/24 A2988 RMK AO2 SLP117
60002 T02780239 10300 20267 56008





000
SAUS42 KCHS 032354
MTRSAV
METAR KSAV 032353Z 11009KT 10SM SCT017 BKN031TCU BKN046 BKN140 27/23
A2987 RMK AO2 SLP114 TCU NE-SE T02720228 10294 20272 56005





000
SAUS42 KCHS 032257
MTRNBC
METAR KNBC 032256Z 12006KT 10SM SCT038 OVC049 28/23 A2988 RMK AO2
SLP119 T02830233





000
SAUS42 KCHS 032254
MTRSAV
METAR KSAV 032253Z 10010KT 10SM SCT028 BKN039 BKN080 BKN140 28/23
A2987 RMK AO2 SLP114 T02830228





000
SAUS42 KCHS 032157
MTRNBC
METAR KNBC 032156Z 13006KT 10SM FEW042 BKN049 28/23 A2989 RMK AO2
SLP122 T02830233





000
SAUS42 KCHS 032157
MTRNBC
METAR KNBC 032156Z 13006KT 10SM FEW042 BKN049 28/23 A2989 RMK AO2
SLP122 T02830233





000
SAUS42 KCHS 032154
MTRSAV
METAR KSAV 032153Z 10006KT 10SM FEW018 BKN040 OVC060 28/23 A2988 RMK
AO2 SLP118 T02780228





000
SAUS42 KCHS 032057
MTRNBC
METAR KNBC 032056Z 13003KT 10SM BKN039 BKN070 BKN100 29/23 A2990 RMK
AO2 SLP125 60002 T02940233 58004





000
SAUS42 KCHS 032054
MTRSAV
METAR KSAV 032053Z 12008KT 10SM FEW028 BKN037 OVC060 28/23 A2988 RMK
AO2 SLP119 T02780228 56006





000
SAUS42 KCHS 031957
MTRNBC
METAR KNBC 031956Z 14003KT 10SM SCT035 BKN045 BKN060 28/24 A2991 RMK
AO2 TSE17 SLP128 T02780239





000
SAUS42 KCHS 031955
MTRSAV
METAR KSAV 031953Z 13008KT 10SM SCT022 BKN036 OVC060 28/23 A2989 RMK
AO2 SLP119 T02780228





000
SAUS42 KCHS 031936
MTRNBC
SPECI KNBC 031934Z 17003KT 7SM FEW029 BKN036 OVC047 28/24 A2991 RMK
AO2 TSE17 T02780239





000
SAUS42 KCHS 031920
MTRNBC
SPECI KNBC 031919Z 16004KT 7SM BKN029 BKN040 OVC048 28/24 A2991 RMK
AO2 TSE17 T02780244





000
SAUS42 KCHS 031919
MTRNBC
SPECI KNBC 031917Z 16003KT 7SM VCTS BKN029 BKN040 OVC050 28/24 A2991
RMK AO2 TSE17 T02780244





000
SAUS42 KCHS 031858
MTRNBC
METAR KNBC 031856Z 15003KT 10SM TS FEW027 BKN040 OVC085 27/24 A2991
RMK AO2 RAE56 SLP128 P0002 T02720244





000
SAUS42 KCHS 031858
MTRNBC
METAR KNBC 031856Z 15003KT 10SM TS FEW027 BKN040 OVC085 27/24 A2991
RMK AO2 RAE56 SLP128 P0002 T02720244





000
SAUS42 KCHS 031854
MTRSAV
METAR KSAV 031853Z 14007KT 10SM SCT015 BKN043 OVC080 28/24 A2990 RMK
AO2 SLP123 T02780239





000
SAUS42 KCHS 031758
MTRNBC
METAR KNBC 031756Z 15007G15KT 10SM -TSRA FEW024 SCT032CB OVC070
28/24 A2991 RMK AO2 RAB40 TSB52 SLP129 OCNL LTGICCCCGCA OHD TS MOV N
P0000 60000 T02830239 10306 20261 58007





000
SAUS42 KCHS 031758
MTRNBC
METAR KNBC 031756Z 15007G15KT 10SM -TSRA FEW024 SCT032CB OVC070
28/24 A2991 RMK AO2 RAB40 TSB52 SLP129 OCNL LTGICCCCGCA OHD TS MOV N
P0000 60000 T02830239 10306 20261 58007





000
SAUS42 KCHS 031754
MTRSAV
METAR KSAV 031753Z 14009KT 10SM FEW010 SCT029 OVC050 28/24 A2990 RMK
AO2 RAB1658E20 SLP124 CB DSNT E MOV NE P0000 60000 T02830239 10294
20256 58005





000
SAUS42 KCHS 031754
MTRSAV
METAR KSAV 031753Z 14009KT 10SM FEW010 SCT029 OVC050 28/24 A2990 RMK
AO2 RAB1658E20 SLP124 CB DSNT E MOV NE P0000 60000 T02830239 10294
20256 58005





000
SAUS42 KCHS 031742
MTRNBC
SPECI KNBC 031740Z 15005KT 10SM -RA SCT024 OVC070 28/24 A2992 RMK
AO2 RAB40 LTG DSNT SW TS SW MOV N P0000 T02830244





000
SAUS42 KCHS 031721
MTRSAV
SPECI KSAV 031719Z 14006KT 8SM -RA FEW014 SCT027CB OVC044 26/23
A2992 RMK AO2 RAB1658 CB E MOV NE P0000





000
SAUS42 KCHS 031658
MTRNBC
METAR KNBC 031656Z 16005KT 10SM SCT026 SCT032 OVC060 28/24 A2992 RMK
AO2 SLP133 LTG DSNT W TS W MOV N T02830239





000
SAUS42 KCHS 031658
MTRNBC
METAR KNBC 031656Z 16005KT 10SM SCT026 SCT032 OVC060 28/24 A2992 RMK
AO2 SLP133 LTG DSNT W TS W MOV N T02830239





000
SAUS42 KCHS 031654
MTRSAV
METAR KSAV 031653Z 15013KT 10SM SCT016CB BKN025 OVC038 26/23 A2992
RMK AO2 SLP129 CB E MOV NE T02610228





000
SAUS42 KCHS 031624
MTRSAV
SPECI KSAV 031623Z 17010G17KT 10SM SCT016 BKN023 OVC040 28/23 A2992
RMK AO2 CB MOV





000
SAUS42 KCHS 031617
MTRNBC
SPECI KNBC 031616Z 15005KT 10SM BKN028 BKN035 29/24 A2992 RMK AO2
T02940239





000
SAUS42 KCHS 031617
MTRNBC
SPECI KNBC 031616Z 15005KT 10SM BKN028 BKN035 29/24 A2992 RMK AO2
T02940239





000
SAUS42 KCHS 031558
MTRNBC
METAR KNBC 031556Z 15007KT 10SM SCT028 SCT036 30/24 A2992 RMK AO2
SLP133 T03000239





000
SAUS42 KCHS 031554
MTRSAV
METAR KSAV 031553Z 15012KT 10SM FEW016 SCT034CB BKN060 BKN130 28/23
A2992 RMK AO2 RAB12E32 SLP129 CB N-E AND DSNT SE AND NW MOV N P0000
T02830233





000
SAUS42 KCHS 031523
MTRSAV
SPECI KSAV 031522Z 15012KT 10SM SCT022CB BKN041 BKN070 27/23 A2992
RMK AO2 RAB12E19 CB OHD-NE-E MOV N P0000





000
SAUS42 KCHS 031515
MTRSAV
SPECI KSAV 031512Z 16011G18KT 10SM -RA BKN022CB BKN041 BKN070 27/23
A2992 RMK AO2 RAB12 CB E-SE MOV N P0000





000
SAUS42 KCHS 031457
MTRNBC
METAR KNBC 031456Z 16005KT 10SM FEW027 BKN034 BKN100 30/24 A2993 RMK
AO2 SLP136 T03000239 51006





000
SAUS42 KCHS 031455
MTRSAV
METAR KSAV 031453Z 14008KT 10SM SCT022 BKN030 BKN080 BKN150 28/23
A2992 RMK AO2 SLP129 CB DSNT NW T02830228 51003





000
SAUS42 KCHS 031357
MTRNBC
METAR KNBC 031356Z 17005KT 10SM FEW030 BKN100 28/24 A2992 RMK AO2
SLP134 T02830239





000
SAUS42 KCHS 031357
MTRNBC
METAR KNBC 031356Z 17005KT 10SM FEW030 BKN100 28/24 A2992 RMK AO2
SLP134 T02830239





000
SAUS42 KCHS 031354
MTRSAV
METAR KSAV 031353Z 16008KT 10SM SCT025TCU BKN080 BKN150 29/24 A2991
RMK AO2 SLP128 TCU W AND N-NE T02890239





000
SAUS42 KCHS 031257
MTRNBC
METAR KNBC 031256Z VRB03KT 10SM FEW024 OVC080 28/24 A2993 RMK AO2
SLP135 T02780244





000
SAUS42 KCHS 031255
MTRSAV
METAR KSAV 031253Z 13006KT 10SM FEW025 SCT075 BKN140 27/24 A2992 RMK
AO2 SLP130 T02720239





000
SAUS42 KCHS 031157
MTRNBC
METAR KNBC 031156Z 00000KT 10SM SCT024 BKN041 OVC075 26/24 A2991 RMK
AO2 RAE23 SLP130 P0000 60000 70230 T02610244 10261 20244 51009





000
SAUS42 KCHS 031157
MTRNBC
METAR KNBC 031156Z 00000KT 10SM SCT024 BKN041 OVC075 26/24 A2991 RMK
AO2 RAE23 SLP130 P0000 60000 70230 T02610244 10261 20244 51009





000
SAUS42 KCHS 031155
MTRSAV
METAR KSAV 031153Z 09003KT 10SM FEW020 SCT035 BKN075 BKN130 26/24
A2991 RMK AO2 SLP126 60001 70075 T02560239 10256 20250 53010





000
SAUS42 KCHS 031155
MTRSAV
METAR KSAV 031153Z 09003KT 10SM FEW020 SCT035 BKN075 BKN130 26/24
A2991 RMK AO2 SLP126 60001 70075 T02560239 10256 20250 53010





000
SAUS42 KCHS 031057
MTRNBC
METAR KNBC 031056Z 00000KT 8SM -RA FEW023 BKN038 OVC075 26/24 A2990
RMK AO2 RAB46 SLP126 P0000 T02560239





000
SAUS42 KCHS 031055
MTRNBC
SPECI KNBC 031054Z 00000KT 8SM -RA FEW023 BKN038 OVC075 26/24 A2990
RMK AO2 RAB46 P0000





000
SAUS42 KCHS 031054
MTRSAV
METAR KSAV 031053Z 10003KT 10SM FEW036 SCT050 BKN080 OVC130 25/23
A2989 RMK AO2 SLP122 T02500233





000
SAUS42 KCHS 031036
MTRNBC
SPECI KNBC 031034Z 23003KT 10SM BKN024 BKN036 BKN070 26/24 A2990 RMK
AO2 FIRST T02560239





000
SAUS42 KCHS 031036
MTRNBC
SPECI KNBC 031034Z 23003KT 10SM BKN024 BKN036 BKN070 26/24 A2990 RMK
AO2 FIRST T02560239





000
SAUS42 KCHS 030957
MTRNBC
METAR KNBC 030956Z AUTO 00000KT 10SM FEW022 26/24 A2989 RMK AO2
SLP121 T02560239





000
SAUS42 KCHS 030954
MTRSAV
METAR KSAV 030953Z 00000KT 10SM SCT055 OVC070 25/23 A2988 RMK AO2
SLP118 FIRST AUGMENTED OBSERVATION T02500233 $





000
SAUS42 KCHS 030857
MTRNBC
METAR KNBC 030856Z AUTO 00000KT 10SM OVC060 26/24 A2988 RMK AO2
SLP118 60000 T02560244 55004





000
SAUS42 KCHS 030854
MTRSAV
METAR KSAV 030853Z AUTO 00000KT 10SM SCT043 OVC065 25/23 A2987 RMK
AO2 SLP115 60001 T02500233 55003 TSNO $





000
SAUS42 KCHS 030757
MTRNBC
METAR KNBC 030756Z AUTO 00000KT 10SM CLR 26/24 A2988 RMK AO2 SLP117
T02560244





000
SAUS42 KCHS 030754
MTRSAV
METAR KSAV 030753Z AUTO 16003KT 10SM FEW031 SCT038 OVC049 25/23
A2987 RMK AO2 RAE11 SLP114 P0001 T02500233 TSNO $





000
SAUS42 KCHS 030754
MTRSAV
METAR KSAV 030753Z AUTO 16003KT 10SM FEW031 SCT038 OVC049 25/23
A2987 RMK AO2 RAE11 SLP114 P0001 T02500233 TSNO $





000
SAUS42 KCHS 030743
MTRSAV
SPECI KSAV 030742Z AUTO 15005KT 10SM FEW019 BKN034 OVC045 25/23
A2987 RMK AO2 RAE11 P0001 TSNO $





000
SAUS42 KCHS 030743
MTRSAV
SPECI KSAV 030742Z AUTO 15005KT 10SM FEW019 BKN034 OVC045 25/23
A2987 RMK AO2 RAE11 P0001 TSNO $





000
SAUS42 KCHS 030718
MTRSAV
SPECI KSAV 030717Z AUTO 16006KT 10SM FEW019 BKN027 OVC055 25/23
A2987 RMK AO2 RAE11 P0001 TSNO $





000
SAUS42 KCHS 030718
MTRSAV
SPECI KSAV 030717Z AUTO 16006KT 10SM FEW019 BKN027 OVC055 25/23
A2987 RMK AO2 RAE11 P0001 TSNO $





000
SAUS42 KCHS 030658
MTRNBC
METAR KNBC 030656Z AUTO 19003KT 10SM FEW040 SCT060 26/24 A2988 RMK
AO2 RAB13E22 SLP118 P0000 T02560244





000
SAUS42 KCHS 030658
MTRNBC
METAR KNBC 030656Z AUTO 19003KT 10SM FEW040 SCT060 26/24 A2988 RMK
AO2 RAB13E22 SLP118 P0000 T02560244





000
SAUS42 KCHS 030654
MTRSAV
METAR KSAV 030653Z AUTO 17005KT 6SM -RA BR FEW020 BKN040 OVC055
25/23 A2987 RMK AO2 RAB26 SLP114 P0000 T02500233 TSNO $





000
SAUS42 KCHS 030557
MTRNBC
METAR KNBC 030556Z AUTO 00000KT 10SM SCT021 BKN120 25/24 A2989 RMK
AO2 RAE32 SLP122 P0001 60002 T02500239 10267 20244 58005





000
SAUS42 KCHS 030554
MTRSAV
METAR KSAV 030553Z AUTO 00000KT 10SM FEW016 OVC034 25/23 A2988 RMK
AO2 RAB20E46 SLP118 P0002 60018 T02500233 10250 20239 58007 TSNO $





000
SAUS42 KCHS 030546
MTRSAV
SPECI KSAV 030545Z AUTO 00000KT 9SM -RA FEW018 BKN030 OVC035 25/23
A2989 RMK AO2 RAB20 P0002 TSNO $





000
SAUS42 KCHS 030526
MTRSAV
SPECI KSAV 030525Z AUTO 00000KT 6SM -RA BR SCT018 BKN027 OVC039
25/23 A2989 RMK AO2 RAB20 P0001 TSNO $





000
SAUS42 KCHS 030457
MTRNBC
METAR KNBC 030456Z AUTO 18005KT 6SM -RA BR FEW012 BKN040 OVC055
26/24 A2991 RMK AO2 RAB54 SLP127 P0001 T02560244 403000239





000
SAUS42 KCHS 030455
MTRSAV
METAR KSAV 030453Z AUTO 00000KT 10SM FEW048 SCT065 24/23 A2990 RMK
AO2 SLP123 T02440233 402940239 TSNO $





000
SAUS42 KCHS 030357
MTRNBC
METAR KNBC 030356Z AUTO 00000KT 10SM OVC047 25/23 A2991 RMK AO2
SLP128 T02500233





000
SAUS42 KCHS 030355
MTRSAV
METAR KSAV 030353Z 07003KT 10SM SCT020 SCT050 BKN100 24/23 A2991 RMK
AO2 SLP127 LAST AUGMENTED OBSERVATION UNTIL 1000Z T02440228 $





000
SAUS42 KCHS 030257
MTRNBC
METAR KNBC 030256Z AUTO 02003KT 10SM FEW080 SCT110 25/23 A2990 RMK
AO2 SLP127 T02500228 50000





000
SAUS42 KCHS 030255
MTRSAV
METAR KSAV 030253Z 00000KT 10SM BKN080 24/23 A2990 RMK AO2 SLP125
60016 T02440228 55000 $





000
SAUS42 KCHS 030157
MTRNBC
METAR KNBC 030156Z AUTO VRB03KT 10SM FEW055 25/23 A2991 RMK AO2
SLP129 T02500233





000
SAUS42 KCHS 030154
MTRSAV
METAR KSAV 030153Z 11004KT 10SM BKN080 24/23 A2991 RMK AO2 SLP128
T02440228 $





000
SAUS42 KCHS 030154
MTRSAV
METAR KSAV 030153Z 11004KT 10SM BKN080 24/23 A2991 RMK AO2 SLP128
T02440228 $





000
SAUS42 KCHS 030105
MTRNBC
SPECI KNBC 030104Z AUTO 18007KT 10SM FEW019 BKN030 OVC050 26/23
A2991 RMK AO2 T02560233





000
SAUS42 KCHS 030057
MTRNBC
METAR KNBC 030056Z AUTO 19007KT 10SM FEW016 BKN029 BKN110 26/23
A2991 RMK AO2 SLP127 T02610233





000
SAUS42 KCHS 030054
MTRSAV
METAR KSAV 030053Z 13004KT 10SM SCT065 BKN090 24/23 A2989 RMK AO2
RAE44 SLP122 P0016 T02440228 $





000
SAUS42 KCHS 030054
MTRNBC
SPECI KNBC 030053Z AUTO 19006KT 10SM FEW016 BKN027 OVC110 26/24
A2990 RMK AO2





000
SAUS42 KCHS 030019
MTRSAV
SPECI KSAV 030018Z 19003KT 4SM RA BR FEW013 BKN035 OVC050 24/23
A2989 RMK AO2 P0015 $





000
SAUS42 KCHS 030019
MTRSAV
SPECI KSAV 030018Z 19003KT 4SM RA BR FEW013 BKN035 OVC050 24/23
A2989 RMK AO2 P0015 $





000
SAUS42 KCHS 022357
MTRNBC
METAR KNBC 022356Z AUTO 00000KT 10SM BKN110 26/23 A2989 RMK AO2
SLP121 60001 T02610233 10300 20244 58007





000
SAUS42 KCHS 022357
MTRNBC
METAR KNBC 022356Z AUTO 00000KT 10SM BKN110 26/23 A2989 RMK AO2
SLP121 60001 T02610233 10300 20244 58007





000
SAUS42 KCHS 022354
MTRSAV
METAR KSAV 022353Z 19004KT 2SM +RA BR BKN013 BKN039 OVC050 24/23
A2990 RMK AO2 RAB21 SLP125 P0019 60032 T02390228 10289 20239 53002 $





000
SAUS42 KCHS 022329
MTRSAV
SPECI KSAV 022328Z 20012G18KT 1 1/2SM R10/3500VP6000FT +RA BR BKN010
BKN024 OVC039 25/23 A2990 RMK AO2 RAB21 P0004 $





000
SAUS42 KCHS 022329
MTRSAV
SPECI KSAV 022328Z 20012G18KT 1 1/2SM R10/3500VP6000FT +RA BR BKN010
BKN024 OVC039 25/23 A2990 RMK AO2 RAB21 P0004 $





000
SAUS42 KCHS 022321
MTRSAV
SPECI KSAV 022320Z 22009G14KT 9SM R10/5500VP6000FT FEW012 BKN025
OVC070 27/24 A2990 RMK AO2 $





000
SAUS42 KCHS 022321
MTRSAV
SPECI KSAV 022320Z 22009G14KT 9SM R10/5500VP6000FT FEW012 BKN025
OVC070 27/24 A2990 RMK AO2 $





000
SAUS42 KCHS 022257
MTRNBC
METAR KNBC 022256Z AUTO 15003KT 10SM OVC100 27/24 A2990 RMK AO2
SLP127 T02670239





000
SAUS42 KCHS 022254
MTRSAV
METAR KSAV 022253Z 17004KT 10SM SCT019 BKN030 BKN110 27/24 A2990 RMK
AO2 SLP122 T02720239 $





000
SAUS42 KCHS 022157
MTRNBC
METAR KNBC 022156Z AUTO 15007KT 10SM FEW017 BKN095 28/24 A2990 RMK
AO2 SLP127 T02830244





000
SAUS42 KCHS 022154
MTRSAV
METAR KSAV 022153Z 14007KT 10SM SCT020 BKN070 BKN110 28/24 A2990 RMK
AO2 SLP124 T02780239 $





000
SAUS42 KCHS 022057
MTRNBC
METAR KNBC 022056Z AUTO 11012KT 10SM FEW017 28/24 A2991 RMK AO2
RAB17E38 SLP128 P0000 60001 T02780244 56015





000
SAUS42 KCHS 022057
MTRNBC
METAR KNBC 022056Z AUTO 11012KT 10SM FEW017 28/24 A2991 RMK AO2
RAB17E38 SLP128 P0000 60001 T02780244 56015





000
SAUS42 KCHS 022054
MTRSAV
METAR KSAV 022053Z 15003KT 10SM FEW006 SCT021 BKN070 BKN150 27/24
A2990 RMK AO2 RAEMM SLP124 P0001 60013 T02720244 56010 $





000
SAUS42 KCHS 022039
MTRSAV
SPECI KSAV 022038Z 8SM -RA FEW006 BKN035 BKN070 BKN150 27/25 A2990
RMK AO2 P0001 $





000
SAUS42 KCHS 021957
MTRNBC
METAR KNBC 021956Z 11007KT 10SM FEW020 SCT040 28/26 A2991 RMK AO2
RAE31 SLP128 P0000 T02830256





000
SAUS42 KCHS 021955
MTRSAV
METAR KSAV 021953Z 13006KT 4SM -RA BR FEW018 SCT036 BKN060 BKN150
26/24 A2991 RMK AO2 SLP126 CB DSNT W P0012 T02610239 $





000
SAUS42 KCHS 021955
MTRSAV
METAR KSAV 021953Z 13006KT 4SM -RA BR FEW018 SCT036 BKN060 BKN150
26/24 A2991 RMK AO2 SLP126 CB DSNT W P0012 T02610239 $





000
SAUS42 KCHS 021857
MTRNBC
METAR KNBC 021856Z 05004KT 9SM -RA BKN035 OVC045 26/25 A2993 RMK AO2
RAB53 SLP137 P0001 T02610250





000
SAUS42 KCHS 021857
MTRNBC
METAR KNBC 021856Z 05004KT 9SM -RA BKN035 OVC045 26/25 A2993 RMK AO2
RAB53 SLP137 P0001 T02610250





000
SAUS42 KCHS 021854
MTRSAV
METAR KSAV 021853Z 12013KT 10SM -RA SCT018CB BKN037 BKN130 OVC200
27/24 A2991 RMK AO2 RAB14 SLP129 CB E-SE-S-SW MOV NW P0000 T02670239
$





000
SAUS42 KCHS 021806
MTRNBC
SPECI KNBC 021805Z AUTO 00000KT 9SM FEW044 FEW060 OVC100 24/24 A2995
RMK AO2 T02440239





000
SAUS42 KCHS 021758
MTRNBC
METAR KNBC 021756Z AUTO 30004KT 9SM VCTS SCT050 SCT070 OVC090 24/24
A2995 RMK AO2 SLP143 P0014 60227 T02440239 10294 20239 53005





000
SAUS42 KCHS 021758
MTRNBC
METAR KNBC 021756Z AUTO 30004KT 9SM VCTS SCT050 SCT070 OVC090 24/24
A2995 RMK AO2 SLP143 P0014 60227 T02440239 10294 20239 53005





000
SAUS42 KCHS 021755
MTRSAV
METAR KSAV 021753Z 09005KT 10SM FEW014CB SCT037 BKN130 BKN200 29/24
A2993 RMK AO2 SLP134 CB SW MOV NW 60024 T02890239 10294 20244 58002
$





000
SAUS42 KCHS 021755
MTRSAV
METAR KSAV 021753Z 09005KT 10SM FEW014CB SCT037 BKN130 BKN200 29/24
A2993 RMK AO2 SLP134 CB SW MOV NW 60024 T02890239 10294 20244 58002
$





000
SAUS42 KCHS 021750
MTRNBC
SPECI KNBC 021749Z AUTO 33004KT 5SM VCTS SCT045 BKN055 OVC090 24/24
A2995 RMK AO2 P0013 T02440239





000
SAUS42 KCHS 021750
MTRNBC
SPECI KNBC 021749Z AUTO 33004KT 5SM VCTS SCT045 BKN055 OVC090 24/24
A2995 RMK AO2 P0013 T02440239





000
SAUS42 KCHS 021720
MTRNBC
SPECI KNBC 021719Z AUTO 32005KT 3SM BKN038 OVC070 24/23 A2995 RMK
AO2 P0011 T02440233





000
SAUS42 KCHS 021720
MTRNBC
SPECI KNBC 021719Z AUTO 32005KT 3SM BKN038 OVC070 24/23 A2995 RMK
AO2 P0011 T02440233





000
SAUS42 KCHS 021716
MTRNBC
SPECI KNBC 021714Z AUTO 33004KT 1 3/4SM BKN036 OVC070 24/23 A2994
RMK AO2 P0010 T02390233





000
SAUS42 KCHS 021707
MTRNBC
SPECI KNBC 021706Z AUTO 00000KT 1SM OVC032 24/23 A2994 RMK AO2 P0008
T02390233





000
SAUS42 KCHS 021707
MTRNBC
SPECI KNBC 021706Z AUTO 00000KT 1SM OVC032 24/23 A2994 RMK AO2 P0008
T02390233





000
SAUS42 KCHS 021706
MTRNBC
SPECI KNBC 021704Z AUTO 02003KT 3/4SM OVC028 24/23 A2994 RMK AO2
P0007 T02390233





000
SAUS42 KCHS 021706
MTRNBC
SPECI KNBC 021704Z AUTO 02003KT 3/4SM OVC028 24/23 A2994 RMK AO2
P0007 T02390233





000
SAUS42 KCHS 021657
MTRNBC
METAR KNBC 021656Z AUTO 35003KT 1/4SM VV019 24/23 A2995 RMK AO2
SLP141 P0151 T02390233





000
SAUS42 KCHS 021655
MTRSAV
METAR KSAV 021653Z 03005KT 10SM FEW006 SCT020 BKN065 OVC130 27/24
A2993 RMK AO2 RAB1558E35 SLP134 CB DSNT NW-N MOV N P0000 T02670239 $





000
SAUS42 KCHS 021645
MTRNBC
SPECI KNBC 021643Z AUTO 00000KT 1/4SM VV014 24/23 A2995 RMK AO2
P0115 T02390233





000
SAUS42 KCHS 021630
MTRNBC
SPECI KNBC 021629Z AUTO 00000KT M1/4SM BKN017 OVC050 24/24 A2996 RMK
AO2 P0067 T02440239





000
SAUS42 KCHS 021630
MTRNBC
SPECI KNBC 021629Z AUTO 00000KT M1/4SM BKN017 OVC050 24/24 A2996 RMK
AO2 P0067 T02440239





000
SAUS42 KCHS 021621
MTRNBC
SPECI KNBC 021619Z AUTO 08004KT 1/2SM BKN026 OVC050 24/24 A2996 RMK
AO2 P0021 T02440239





000
SAUS42 KCHS 021617
MTRNBC
SPECI KNBC 021616Z AUTO 11006KT 1SM BKN026 OVC050 25/24 A2996 RMK
AO2 P0011 T02500239





000
SAUS42 KCHS 021617
MTRNBC
SPECI KNBC 021616Z AUTO 11006KT 1SM BKN026 OVC050 25/24 A2996 RMK
AO2 P0011 T02500239





000
SAUS42 KCHS 021615
MTRNBC
SPECI KNBC 021614Z AUTO 11006KT 1 1/2SM SCT026 OVC050 25/24 A2996
RMK AO2 P0006 T02500244





000
SAUS42 KCHS 021612
MTRNBC
SPECI KNBC 021611Z AUTO 11008KT 2 1/2SM SCT024 BKN050 OVC055 26/24
A2995 RMK AO2 VIS 1 1/4V5 P0003 T02560244





000
SAUS42 KCHS 021612
MTRNBC
SPECI KNBC 021611Z AUTO 11008KT 2 1/2SM SCT024 BKN050 OVC055 26/24
A2995 RMK AO2 VIS 1 1/4V5 P0003 T02560244





000
SAUS42 KCHS 021607
MTRNBC
SPECI KNBC 021606Z AUTO 12007KT 2SM BKN024 BKN055 OVC070 26/24 A2995
RMK AO2 VIS 3/4V5 P0001 T02560244





000
SAUS42 KCHS 021605
MTRNBC
SPECI KNBC 021603Z AUTO 12004KT 3/4SM BKN021 BKN055 OVC070 26/24
A2995 RMK AO2 P0001 T02560239





000
SAUS42 KCHS 021559
MTRSAV
SPECI KSAV 021558Z 05006KT 8SM -RA FEW006 SCT020CB BKN065 OVC130
24/23 A2995 RMK AO2 RAB58 CB NW-N-NE MOV N P0000 $





000
SAUS42 KCHS 021557
MTRNBC
METAR KNBC 021556Z AUTO 27003KT 1/4SM BKN016 OVC026 24/23 A2994 RMK
AO2 SLP139 P0062 T02440233





000
SAUS42 KCHS 021555
MTRSAV
METAR KSAV 021553Z 03007KT 10SM FEW012 SCT020CB BKN065 OVC130 24/23
A2995 RMK AO2 RAB1455E44 SLP140 CB NW-N-NE MOV N P0024 T02440233 $





000
SAUS42 KCHS 021550
MTRNBC
SPECI KNBC 021549Z AUTO VRB04KT 1/4SM BKN014 OVC023 25/24 A2994 RMK
AO2 P0042 T02500239





000
SAUS42 KCHS 021545
MTRSAV
SPECI KSAV 021544Z 03006KT 10SM FEW012 SCT020CB BKN065 OVC130 24/23
A2995 RMK AO2 RAB1455E44 CB NW-N-NE MOV N P0024 $





000
SAUS42 KCHS 021545
MTRSAV
SPECI KSAV 021544Z 03006KT 10SM FEW012 SCT020CB BKN065 OVC130 24/23
A2995 RMK AO2 RAB1455E44 CB NW-N-NE MOV N P0024 $





000
SAUS42 KCHS 021543
MTRNBC
SPECI KNBC 021542Z AUTO 19007KT 1/2SM SCT016 BKN025 26/24 A2994 RMK
AO2 P0008 T02610244





000
SAUS42 KCHS 021540
MTRNBC
SPECI KNBC 021539Z AUTO 18006KT 1SM SCT016 BKN021 BKN028 26/24 A2994
RMK AO2 P0004 T02610244





000
SAUS42 KCHS 021537
MTRNBC
SPECI KNBC 021536Z AUTO 17006KT 1 3/4SM BKN016 BKN028 27/24 A2994
RMK AO2 P0002 T02720244





000
SAUS42 KCHS 021531
MTRNBC
SPECI KNBC 021531Z AUTO 15004KT 10SM BKN016 BKN028 BKN055 28/24
A2994 RMK AO2 T02830244





000
SAUS42 KCHS 021530
MTRSAV
SPECI KSAV 021529Z 06004KT 3SM R10/5500VP6000FT -RA BR SCT012CB
BKN020 OVC065 24/23 A2995 RMK AO2 RAB1455 CB OHD-N-E MOV N P0023 $





000
SAUS42 KCHS 021530
MTRSAV
SPECI KSAV 021529Z 06004KT 3SM R10/5500VP6000FT -RA BR SCT012CB
BKN020 OVC065 24/23 A2995 RMK AO2 RAB1455 CB OHD-N-E MOV N P0023 $





000
SAUS42 KCHS 021519
MTRSAV
SPECI KSAV 021516Z 12006KT 2SM R10/4000VP6000FT +RA BR SCT012CB
BKN020 OVC065 24/23 A2994 RMK AO2 RAB1455 CB OHD-N-E-SE MOV N P0015
$





000
SAUS42 KCHS 021519
MTRSAV
SPECI KSAV 021516Z 12006KT 2SM R10/4000VP6000FT +RA BR SCT012CB
BKN020 OVC065 24/23 A2994 RMK AO2 RAB1455 CB OHD-N-E-SE MOV N P0015
$





000
SAUS42 KCHS 021506
MTRSAV
SPECI KSAV 021505Z 13008KT 3SM RA BR SCT014CB BKN025 BKN065 BKN130
26/23 A2994 RMK AO2 RAB1455 CB NE-E-S MOV N P0000 $





000
SAUS42 KCHS 021458
MTRNBC
METAR KNBC 021456Z AUTO 01004KT 10SM SCT014 BKN039 BKN047 29/24
A2994 RMK AO2 SLP138 T02940244 51007





000
SAUS42 KCHS 021458
MTRNBC
METAR KNBC 021456Z AUTO 01004KT 10SM SCT014 BKN039 BKN047 29/24
A2994 RMK AO2 SLP138 T02940244 51007





000
SAUS42 KCHS 021454
MTRSAV
METAR KSAV 021453Z 00000KT 9SM SCT012CB SCT025 BKN065 BKN130 26/23
A2994 RMK AO2 SLP136 CB SE MOV N T02610228 51007 $





000
SAUS42 KCHS 021454
MTRSAV
METAR KSAV 021453Z 00000KT 9SM SCT012CB SCT025 BKN065 BKN130 26/23
A2994 RMK AO2 SLP136 CB SE MOV N T02610228 51007 $





000
SAUS42 KCHS 021434
MTRSAV
SPECI KSAV 021432Z VRB03KT 10SM SCT010CB SCT015 BKN065 BKN130 27/23
A2993 RMK AO2 CB SE MOV N





000
SAUS42 KCHS 021434
MTRNBC
SPECI KNBC 021432Z AUTO 00000KT 10SM SCT014 BKN041 28/24 A2993 RMK
AO2 T02830239





000
SAUS42 KCHS 021412
MTRSAV
SPECI KSAV 021410Z 00000KT 10SM SCT010CB BKN015 BKN065 OVC130 27/23
A2993 RMK AO2 SCT010 V BKN CB S MOV N





000
SAUS42 KCHS 021410
MTRNBC
SPECI KNBC 021409Z AUTO 00000KT 10SM BKN013 28/24 A2993 RMK AO2
T02780239





000
SAUS42 KCHS 021402
MTRSAV
METAR KSAV 021353Z COR 00000KT 10SM SCT010 SCT018CB BKN065 BKN130
26/23 A2993 RMK AO2 SLP135 SCT010 V BKN CB S MOV N T02610233





000
SAUS42 KCHS 021357
MTRNBC
METAR KNBC 021356Z AUTO 00000KT 10SM FEW012 28/24 A2993 RMK AO2
SLP135 T02780239





000
SAUS42 KCHS 021354
MTRSAV
METAR KSAV 021353Z 00000KT 10SM SCT010 SCT018CB BKN065 BKN130 26/23
A2993 RMK AO2 SLP135 CB S MOV N SCT010 V BKN T02610233





000
SAUS42 KCHS 021257
MTRNBC
METAR KNBC 021256Z AUTO 00000KT 10SM FEW037 27/23 A2993 RMK AO2
SLP135 T02670233





000
SAUS42 KCHS 021254
MTRSAV
METAR KSAV 021253Z 00000KT 10SM FEW005 SCT018 BKN065 BKN130 26/23
A2993 RMK AO2 SLP134 T02560228





000
SAUS42 KCHS 021157
MTRNBC
METAR KNBC 021156Z AUTO 27003KT 10SM CLR 26/24 A2992 RMK AO2 SLP131
70003 T02560239 10256 20239 51009





000
SAUS42 KCHS 021157
MTRNBC
METAR KNBC 021156Z AUTO 27003KT 10SM CLR 26/24 A2992 RMK AO2 SLP131
70003 T02560239 10256 20239 51009





000
SAUS42 KCHS 021154
MTRSAV
METAR KSAV 021153Z 00000KT 10SM FEW003 SCT013 SCT035 BKN150 25/23
A2991 RMK AO2 SLP129 70053 T02500228 10256 20244 50006





000
SAUS42 KCHS 021154
MTRSAV
METAR KSAV 021153Z 00000KT 10SM FEW003 SCT013 SCT035 BKN150 25/23
A2991 RMK AO2 SLP129 70053 T02500228 10256 20244 50006





000
SAUS42 KCHS 021131
MTRSAV
SPECI KSAV 021130Z 00000KT 10SM FEW003 SCT013 BKN035 BKN150 24/23
A2991 RMK AO2





000
SAUS42 KCHS 021131
MTRSAV
SPECI KSAV 021130Z 00000KT 10SM FEW003 SCT013 BKN035 BKN150 24/23
A2991 RMK AO2





000
SAUS42 KCHS 021058
MTRNBC
METAR KNBC 021056Z AUTO 00000KT 10SM BKN030 24/23 A2992 RMK AO2
SLP131 T02440233





000
SAUS42 KCHS 021054
MTRSAV
METAR KSAV 021053Z 18003KT 10SM FEW003 OVC013 24/23 A2992 RMK AO2
SLP131 T02440228





000
SAUS42 KCHS 021054
MTRSAV
METAR KSAV 021053Z 18003KT 10SM FEW003 OVC013 24/23 A2992 RMK AO2
SLP131 T02440228





000
SAUS42 KCHS 021012
MTRSAV
SPECI KSAV 021011Z 23003KT 10SM FEW003 BKN013 BKN035 OVC150 24/23
A2990 RMK AO2





000
SAUS42 KCHS 020958
MTRNBC
METAR KNBC 020956Z AUTO 25005KT 10SM CLR 24/23 A2990 RMK AO2 SLP124
T02390228





000
SAUS42 KCHS 020954
MTRSAV
METAR KSAV 020953Z 23003KT 10SM FEW005 SCT015 BKN035 BKN150 24/23
A2990 RMK AO2 SLP125 FIRST AUGMENTED OBSERVATION T02440228





000
SAUS42 KCHS 020954
MTRSAV
METAR KSAV 020953Z 23003KT 10SM FEW005 SCT015 BKN035 BKN150 24/23
A2990 RMK AO2 SLP125 FIRST AUGMENTED OBSERVATION T02440228





000
SAUS42 KCHS 020930
MTRSAV
SPECI KSAV 020929Z AUTO 00000KT 10SM BKN015 24/23 A2990 RMK AO2 TSNO





000
SAUS42 KCHS 020910
MTRSAV
SPECI KSAV 020909Z AUTO 00000KT 10SM BKN011 24/23 A2989 RMK AO2 TSNO





000
SAUS42 KCHS 020857
MTRNBC
METAR KNBC 020856Z AUTO 20003KT 10SM CLR 25/24 A2989 RMK AO2 SLP122
T02500239 56008





000
SAUS42 KCHS 020857
MTRNBC
METAR KNBC 020856Z AUTO 20003KT 10SM CLR 25/24 A2989 RMK AO2 SLP122
T02500239 56008





000
SAUS42 KCHS 020854
MTRSAV
METAR KSAV 020853Z AUTO 00000KT 10SM FEW100 24/23 A2989 RMK AO2
SLP122 T02440228 56007 TSNO





000
SAUS42 KCHS 020842
MTRNBC
SPECI KNBC 020841Z AUTO 00000KT 10SM SCT014 25/24 A2989 RMK AO2
T02500239





    US Dept of Commerce
    National Oceanic and Atmospheric Administration
    National Weather Service
    1325 East West Highway
    Silver Spring, MD 20910
    Page Author: NWS Internet Services Team
Disclaimer
Information Quality
Credits
Glossary
Privacy Policy
Freedom of Information Act (FOIA)
About Us
Career Opportunities